Time;durP1;ratioP1;P1;durP2;ratioP2;P2;SDS_P1;SDS_P2;PMS_P1;PMS_P2;Temp;Humidity;BMP_temperature;BMP_pressure;BME280_temperature;BME280_humidity;BME280_pressure;Samples;Min_cycle;Max_cycle;Signal;HPM_P1;HPM_P2
2023/08/17 00:00:13;;;;;;;;;;;21.10;99.90;;;;;;2602739;54;20046;31
2023/08/17 00:02:54;;;;;;;6.65;4.90;;;21.10;99.90;;;;;;2602614;54;19943;31
2023/08/17 00:05:32;;;;;;;9.15;5.32;;;21.10;99.90;;;;;;2620908;46;21287;31
2023/08/17 00:08:13;;;;;;;6.90;5.10;;;21.10;99.90;;;;;;2603729;54;20566;31
2023/08/17 00:10:52;;;;;;;6.05;4.68;;;21.10;99.90;;;;;;2632318;54;20028;-90
2023/08/17 00:13:30;;;;;;;6.95;5.03;;;21.10;99.90;;;;;;2617368;46;20799;31
2023/08/17 00:16:07;;;;;;;11.00;6.40;;;21.10;99.90;;;;;;2603096;54;20060;31
2023/08/17 00:18:45;;;;;;;7.38;5.38;;;21.10;99.90;;;;;;2713818;39;20417;31
2023/08/17 00:21:22;;;;;;;5.35;4.72;;;21.20;99.90;;;;;;2602500;54;20793;31
2023/08/17 00:24:03;;;;;;;7.45;5.35;;;21.20;99.90;;;;;;2603094;54;20026;31
2023/08/17 00:26:40;;;;;;;7.65;5.38;;;21.20;99.90;;;;;;2603511;54;20026;31
2023/08/17 00:29:19;;;;;;;8.25;5.70;;;21.30;99.90;;;;;;2621614;47;20901;31
2023/08/17 00:31:54;;;;;;;5.68;4.82;;;21.30;99.90;;;;;;2602581;54;20030;31
2023/08/17 00:34:32;;;;;;;;;;;21.40;99.90;;;;;;2621846;47;19935;31
2023/08/17 00:37:16;;;;;;;6.00;5.40;;;21.40;99.90;;;;;;2603021;54;19935;31
2023/08/17 00:39:53;;;;;;;8.07;5.32;;;21.40;99.90;;;;;;2603086;54;21326;31
2023/08/17 00:42:30;;;;;;;10.60;6.20;;;21.40;99.90;;;;;;2603135;54;20019;31
2023/08/17 00:45:08;;;;;;;6.75;5.85;;;21.40;99.90;;;;;;2622034;47;20045;31
2023/08/17 00:47:43;;;;;;;8.20;6.65;;;21.40;99.90;;;;;;2603208;54;20099;31
2023/08/17 00:50:17;;;;;;;6.03;5.40;;;21.40;99.90;;;;;;2632988;54;20025;-90
2023/08/17 00:52:53;;;;;;;7.20;5.30;;;21.40;99.90;;;;;;2951918;46;20011;-92
2023/08/17 00:55:29;;;;;;;6.00;5.40;;;21.40;99.90;;;;;;2603543;54;20023;31
2023/08/17 00:58:13;;;;;;;6.05;5.45;;;21.50;99.90;;;;;;2703035;39;20528;31
2023/08/17 01:00:53;;;;;;;8.88;4.57;;;21.40;99.90;;;;;;2622234;46;20107;31
2023/08/17 01:03:34;;;;;;;4.63;4.07;;;21.40;99.90;;;;;;2603879;54;20096;31
2023/08/17 01:06:09;;;;;;;6.15;5.50;;;21.30;99.90;;;;;;2603804;54;20027;31
2023/08/17 01:08:50;;;;;;;5.73;3.43;;;21.20;99.90;;;;;;2622295;46;20944;31
2023/08/17 01:11:38;;;;;;;4.00;2.90;;;21.10;99.90;;;;;;2603052;54;20073;31
2023/08/17 01:14:20;;;;;;;8.70;3.60;;;21.10;99.90;;;;;;2603980;54;19946;31
2023/08/17 01:16:58;;;;;;;10.00;3.88;;;21.10;99.90;;;;;;2622271;46;20053;31
2023/08/17 01:19:37;;;;;;;14.30;6.15;;;20.90;99.90;;;;;;2603803;54;20883;31
2023/08/17 01:22:13;;;;;;;12.23;7.05;;;20.70;99.90;;;;;;2603637;54;20884;31
2023/08/17 01:24:57;;;;;;;9.00;5.68;;;20.60;99.90;;;;;;2603221;54;20033;31
2023/08/17 01:27:39;;;;;;;11.35;6.07;;;20.40;99.90;;;;;;2603664;54;20095;31
2023/08/17 01:30:19;;;;;;;11.50;6.18;;;20.20;99.90;;;;;;2603935;54;20797;31
2023/08/17 01:32:59;;;;;;;11.57;5.82;;;20.10;99.90;;;;;;2602892;54;20800;31
2023/08/17 01:35:40;;;;;;;17.27;6.35;;;20.10;99.90;;;;;;2602862;54;20600;31
2023/08/17 01:38:17;;;;;;;8.63;4.93;;;20.00;99.90;;;;;;2603680;54;19960;31
2023/08/17 01:40:57;;;;;;;10.63;5.57;;;19.90;99.90;;;;;;2603757;54;20900;31
2023/08/17 01:43:35;;;;;;;9.03;5.60;;;19.80;99.90;;;;;;2602998;54;20049;31
2023/08/17 01:46:16;;;;;;;9.07;4.78;;;19.80;99.90;;;;;;2622112;46;20034;31
2023/08/17 01:48:56;;;;;;;8.38;5.30;;;19.80;99.90;;;;;;2603795;54;20053;31
2023/08/17 01:51:34;;;;;;;8.10;4.55;;;19.70;99.90;;;;;;2602904;54;20031;31
2023/08/17 01:54:13;;;;;;;7.47;4.20;;;19.70;99.90;;;;;;2714864;39;21570;31
2023/08/17 01:57:02;;;;;;;10.48;5.25;;;19.60;99.90;;;;;;2603915;54;20085;31
2023/08/17 01:59:38;;;;;;;5.82;3.67;;;19.50;99.90;;;;;;2603691;54;20029;31
2023/08/17 02:05:12;;;;;;;7.55;3.90;;;19.50;99.90;;;;;;2602736;54;20126;31
2023/08/17 02:07:49;;;;;;;5.22;3.95;;;19.40;99.90;;;;;;2601020;54;20062;31
2023/08/17 02:10:30;;;;;;;6.30;3.70;;;19.40;99.90;;;;;;2602112;54;22144;31
2023/08/17 02:13:09;;;;;;;5.28;4.07;;;19.40;99.90;;;;;;2601837;54;20100;31
2023/08/17 02:15:51;;;;;;;5.60;3.63;;;19.40;99.90;;;;;;2620612;46;20933;31
2023/08/17 02:18:30;;;;;;;8.88;3.25;;;19.40;99.90;;;;;;2601503;54;21266;31
2023/08/17 02:21:09;;;;;;;8.05;3.40;;;19.40;99.90;;;;;;2601872;54;20038;31
2023/08/17 02:23:47;;;;;;;6.53;3.20;;;19.50;99.90;;;;;;2600865;54;20040;31
2023/08/17 02:26:23;;;;;;;5.65;3.42;;;19.50;99.90;;;;;;2601981;54;22188;31
2023/08/17 02:29:01;;;;;;;;;;;19.50;99.90;;;;;;2602211;54;20042;31
2023/08/17 02:31:37;;;;;;;5.40;3.47;;;19.60;99.90;;;;;;2602091;54;19951;31
2023/08/17 02:34:12;;;;;;;4.75;3.40;;;19.60;99.90;;;;;;2601909;54;20050;31
2023/08/17 02:36:50;;;;;;;6.17;3.83;;;19.60;99.90;;;;;;2601170;54;21093;31
2023/08/17 02:39:27;;;;;;;8.30;3.75;;;19.60;99.90;;;;;;2602008;54;20101;31
2023/08/17 02:42:04;;;;;;;7.32;3.53;;;19.60;99.90;;;;;;2601969;54;20135;31
2023/08/17 02:44:44;;;;;;;6.00;3.67;;;19.60;99.90;;;;;;2602030;54;20872;31
2023/08/17 02:47:23;;;;;;;4.07;3.10;;;19.50;99.90;;;;;;2600837;54;20044;31
2023/08/17 02:50:04;;;;;;;5.60;3.30;;;19.50;99.90;;;;;;2601004;54;20078;31
2023/08/17 02:52:42;;;;;;;6.68;3.58;;;19.50;99.90;;;;;;2602187;54;20860;31
2023/08/17 02:55:19;;;;;;;6.15;3.72;;;19.60;99.90;;;;;;2620362;46;20056;31
2023/08/17 02:57:55;;;;;;;4.10;3.60;;;19.50;99.90;;;;;;2601660;54;20920;31
2023/08/17 03:00:36;;;;;;;4.07;3.23;;;19.60;99.90;;;;;;2620563;46;21160;31
2023/08/17 03:03:15;;;;;;;7.87;3.47;;;19.60;99.90;;;;;;2604749;46;20261;31
2023/08/17 03:05:55;;;;;;;4.10;3.40;;;19.50;99.90;;;;;;2601911;54;20265;31
2023/08/17 03:11:07;;;;;;;4.55;3.40;;;19.50;99.90;;;;;;2619450;46;20070;31
2023/08/17 03:13:48;;;;;;;5.70;3.28;;;19.60;99.90;;;;;;2600982;54;20101;31
2023/08/17 03:16:27;;;;;;;5.90;2.90;;;19.60;99.90;;;;;;2600455;54;20042;31
2023/08/17 03:19:10;;;;;;;4.85;3.67;;;19.60;99.90;;;;;;2607319;39;21503;31
2023/08/17 03:21:50;;;;;;;6.03;3.70;;;19.60;99.90;;;;;;2608696;46;22211;31
2023/08/17 03:24:26;;;;;;;3.95;2.88;;;19.60;99.90;;;;;;2601725;54;20207;31
2023/08/17 03:27:01;;;;;;;5.53;3.78;;;19.60;99.90;;;;;;2620242;46;20083;31
2023/08/17 03:29:41;;;;;;;4.03;3.47;;;19.60;99.90;;;;;;2606820;46;21464;31
2023/08/17 03:32:23;;;;;;;6.43;2.93;;;19.60;99.90;;;;;;2611617;46;20038;31
2023/08/17 03:35:01;;;;;;;5.50;3.45;;;19.50;99.90;;;;;;2600895;54;20048;31
2023/08/17 03:37:38;;;;;;;5.77;3.53;;;19.50;99.90;;;;;;2601626;54;20941;31
2023/08/17 03:40:21;;;;;;;4.20;3.53;;;19.40;99.90;;;;;;2601523;54;20274;31
2023/08/17 03:42:58;;;;;;;5.15;2.75;;;19.40;99.90;;;;;;2601452;54;20232;31
2023/08/17 03:45:39;;;;;;;5.20;3.33;;;19.40;99.90;;;;;;2601534;54;20034;31
2023/08/17 03:48:18;;;;;;;4.70;3.05;;;19.40;99.90;;;;;;2601923;54;19951;31
2023/08/17 03:51:10;;;;;;;4.90;3.58;;;19.40;99.90;;;;;;2601604;54;20911;31
2023/08/17 03:53:53;;;;;;;4.95;3.03;;;19.40;99.90;;;;;;2601703;54;22145;31
2023/08/17 03:56:31;;;;;;;4.10;3.30;;;19.40;99.90;;;;;;2600654;54;20038;31
2023/08/17 03:59:07;;;;;;;3.95;3.42;;;19.40;99.90;;;;;;2600716;54;20111;31
2023/08/17 04:01:45;;;;;;;;;;;19.40;99.90;;;;;;2601156;54;20112;31
2023/08/17 04:04:29;;;;;;;6.20;4.05;;;19.40;99.90;;;;;;2600611;54;20808;31
2023/08/17 04:07:06;;;;;;;7.10;3.53;;;19.50;99.90;;;;;;2601584;54;20054;31
2023/08/17 04:09:46;;;;;;;6.18;3.80;;;19.50;99.90;;;;;;2601399;54;21196;31
2023/08/17 04:12:21;;;;;;;6.22;4.78;;;19.50;99.90;;;;;;2600886;54;20952;31
2023/08/17 04:15:00;;;;;;;6.95;3.95;;;19.50;99.90;;;;;;2600643;54;20041;31
2023/08/17 04:17:40;;;;;;;6.00;4.07;;;19.50;99.90;;;;;;2601363;54;20073;31
2023/08/17 04:20:19;;;;;;;9.60;6.05;;;19.50;99.90;;;;;;2600198;54;20039;31
2023/08/17 04:22:57;;;;;;;7.93;5.18;;;19.50;99.90;;;;;;2601380;54;22165;31
2023/08/17 04:25:36;;;;;;;6.95;5.75;;;19.50;99.90;;;;;;2600570;54;20916;31
2023/08/17 04:28:13;;;;;;;11.40;5.55;;;19.50;99.90;;;;;;2609160;47;20035;31
2023/08/17 04:30:52;;;;;;;4.35;3.60;;;19.50;99.90;;;;;;2601385;54;20432;31
2023/08/17 04:33:27;;;;;;;6.00;4.78;;;19.60;99.90;;;;;;2601245;54;20894;31
2023/08/17 04:36:06;;;;;;;6.53;4.05;;;19.60;99.90;;;;;;2601405;54;20363;31
2023/08/17 04:38:45;;;;;;;5.05;3.70;;;19.70;99.90;;;;;;2601244;54;20089;31
2023/08/17 04:41:22;;;;;;;6.15;5.45;;;19.70;99.90;;;;;;2610222;47;20040;31
2023/08/17 04:44:01;;;;;;;6.43;4.38;;;19.70;99.90;;;;;;2613238;31;21447;31
2023/08/17 04:46:37;;;;;;;9.40;4.40;;;19.90;99.90;;;;;;2619741;47;20050;31
2023/08/17 04:49:12;;;;;;;4.88;3.80;;;19.80;99.90;;;;;;2600714;54;20898;31
2023/08/17 04:51:50;;;;;;;7.47;3.70;;;19.90;99.90;;;;;;2601418;54;20932;31
2023/08/17 04:54:27;;;;;;;6.25;4.30;;;19.90;99.90;;;;;;2601346;54;20415;31
2023/08/17 04:57:05;;;;;;;5.90;4.50;;;19.90;99.90;;;;;;2601360;54;20042;31
2023/08/17 04:59:41;;;;;;;7.28;5.25;;;20.00;99.90;;;;;;2601332;54;22306;31
2023/08/17 05:02:17;;;;;;;11.35;6.10;;;19.90;99.90;;;;;;2600779;54;20105;31
2023/08/17 05:04:50;;;;;;;8.82;5.38;;;20.00;99.90;;;;;;2601350;54;21091;31
2023/08/17 05:07:29;;;;;;;6.90;5.10;;;20.10;99.90;;;;;;2601175;54;20042;31
2023/08/17 05:10:08;;;;;;;9.88;5.13;;;20.10;99.90;;;;;;2610655;47;20996;31
2023/08/17 05:12:48;;;;;;;6.63;4.80;;;20.10;99.90;;;;;;2600479;54;20940;31
2023/08/17 05:15:26;;;;;;;6.30;4.75;;;20.10;99.90;;;;;;2600265;54;20038;31
2023/08/17 05:18:07;;;;;;;6.35;4.43;;;20.20;99.90;;;;;;2600349;54;20124;31
2023/08/17 05:20:43;;;;;;;7.15;5.20;;;20.20;99.90;;;;;;2600295;54;20043;31
2023/08/17 05:23:23;;;;;;;6.03;4.53;;;20.30;99.90;;;;;;2618833;47;20038;31
2023/08/17 05:26:04;;;;;;;13.55;5.70;;;20.40;99.90;;;;;;2601235;54;20291;31
2023/08/17 05:28:45;;;;;;;8.90;6.30;;;20.40;99.90;;;;;;2619564;47;20064;31
2023/08/17 05:31:24;;;;;;;9.05;6.05;;;20.50;99.90;;;;;;2619798;47;20038;31
2023/08/17 05:34:03;;;;;;;6.03;5.07;;;20.60;99.90;;;;;;2602254;54;20065;31
2023/08/17 05:36:48;;;;;;;10.13;6.22;;;20.70;99.90;;;;;;2605983;46;21258;31
2023/08/17 05:39:26;;;;;;;7.20;4.63;;;20.90;99.90;;;;;;2627329;39;21319;31
2023/08/17 05:42:05;;;;;;;4.90;4.00;;;21.30;99.90;;;;;;2608665;46;20116;31
2023/08/17 05:44:42;;;;;;;6.65;4.15;;;21.60;99.90;;;;;;2601395;54;20058;31
2023/08/17 05:47:19;;;;;;;7.03;3.65;;;22.10;99.90;;;;;;2601396;54;20087;31
2023/08/17 05:49:58;;;;;;;7.72;4.03;;;22.40;99.90;;;;;;2608600;39;21335;31
2023/08/17 05:52:38;;;;;;;6.13;3.80;;;22.70;99.90;;;;;;2601981;54;21118;31
2023/08/17 05:55:20;;;;;;;7.10;4.25;;;22.80;99.90;;;;;;2607611;46;21050;31
2023/08/17 05:57:57;;;;;;;7.07;4.50;;;22.70;99.90;;;;;;2620517;46;20123;31
2023/08/17 06:00:34;;;;;;;9.25;5.15;;;22.70;99.90;;;;;;2627430;39;21307;31
2023/08/17 06:03:16;;;;;;;4.15;3.42;;;22.50;99.90;;;;;;2602234;54;20826;31
2023/08/17 06:05:56;;;;;;;3.85;3.25;;;22.60;99.90;;;;;;2620582;46;20046;31
2023/08/17 06:08:35;;;;;;;6.30;2.97;;;22.60;99.90;;;;;;2601121;54;20046;31
2023/08/17 06:11:15;;;;;;;4.38;2.92;;;22.60;99.90;;;;;;2606434;46;21223;31
2023/08/17 06:13:53;;;;;;;6.53;3.10;;;22.60;99.90;;;;;;2602041;54;20936;31
2023/08/17 06:16:28;;;;;;;5.13;3.33;;;22.60;99.90;;;;;;2602147;54;20836;31
2023/08/17 06:19:04;;;;;;;7.40;3.25;;;22.60;99.90;;;;;;2618706;46;20054;31
2023/08/17 06:21:45;;;;;;;6.35;3.10;;;22.50;99.90;;;;;;2601997;54;20054;31
2023/08/17 06:24:25;;;;;;;6.22;3.13;;;22.50;99.90;;;;;;2601771;54;25057;31
2023/08/17 06:27:04;;;;;;;3.78;2.75;;;22.50;99.90;;;;;;2602201;54;20042;31
2023/08/17 06:29:44;;;;;;;5.00;2.25;;;22.50;99.90;;;;;;2601911;54;20044;31
2023/08/17 06:32:23;;;;;;;5.65;2.42;;;22.40;99.90;;;;;;2601972;54;20160;31
2023/08/17 06:35:04;;;;;;;2.83;2.22;;;22.50;99.90;;;;;;2602357;54;21111;31
2023/08/17 06:37:41;;;;;;;5.10;3.40;;;22.40;99.90;;;;;;2602097;54;20083;31
2023/08/17 06:40:20;;;;;;;5.55;2.85;;;22.50;99.90;;;;;;2602105;54;20394;31
2023/08/17 06:43:03;;;;;;;5.38;2.95;;;22.50;99.90;;;;;;2600550;54;20495;31
2023/08/17 06:45:43;;;;;;;5.03;3.00;;;22.50;99.90;;;;;;2620481;46;20044;31
2023/08/17 06:48:23;;;;;;;6.18;2.75;;;22.50;99.90;;;;;;2605872;46;20906;31
2023/08/17 06:51:02;;;;;;;3.80;2.23;;;22.50;99.90;;;;;;2601085;54;20035;31
2023/08/17 06:53:40;;;;;;;4.72;3.35;;;22.50;99.90;;;;;;2602007;54;21037;31
2023/08/17 06:56:19;;;;;;;5.25;3.00;;;22.40;99.90;;;;;;2601853;54;21010;31
2023/08/17 06:59:02;;;;;;;6.82;3.03;;;22.40;99.90;;;;;;2601915;54;20884;31
2023/08/17 07:01:38;;;;;;;9.15;3.30;;;22.50;99.90;;;;;;2620935;46;20875;31
2023/08/17 07:04:17;;;;;;;4.13;2.30;;;22.50;99.90;;;;;;2601946;54;20045;31
2023/08/17 07:06:51;;;;;;;5.18;2.75;;;22.60;99.90;;;;;;2601893;54;20105;31
2023/08/17 07:09:30;;;;;;;3.75;2.60;;;22.60;99.90;;;;;;2620186;46;20046;31
2023/08/17 07:12:11;;;;;;;4.20;2.72;;;22.70;99.90;;;;;;2601661;54;20952;31
2023/08/17 07:14:53;;;;;;;5.00;3.15;;;22.80;99.90;;;;;;2613798;31;20371;31
2023/08/17 07:18:08;;;;;;;8.63;3.15;;;22.80;99.90;;;;;;2601567;54;20863;31
2023/08/17 07:20:49;;;;;;;7.80;3.40;;;22.80;99.90;;;;;;2608766;39;20239;31
2023/08/17 07:23:26;;;;;;;3.85;2.85;;;22.80;99.90;;;;;;2608046;46;21019;31
2023/08/17 07:26:03;;;;;;;6.05;3.45;;;22.90;99.90;;;;;;2601686;54;20808;31
2023/08/17 07:28:49;;;;;;;4.00;3.00;;;23.00;99.90;;;;;;2601760;54;20778;31
2023/08/17 07:31:33;;;;;;;6.57;2.70;;;23.20;99.90;;;;;;2601738;54;20053;31
2023/08/17 07:34:11;;;;;;;6.03;2.37;;;23.60;99.90;;;;;;2620091;46;20048;31
2023/08/17 07:36:52;;;;;;;5.57;2.47;;;23.90;99.90;;;;;;2601826;54;20785;31
2023/08/17 07:39:34;;;;;;;5.78;2.88;;;23.90;99.90;;;;;;2619840;46;20038;31
2023/08/17 07:42:15;;;;;;;7.97;2.88;;;24.00;99.90;;;;;;2619535;46;20851;31
2023/08/17 07:44:51;;;;;;;5.15;2.63;;;24.10;99.90;;;;;;2601671;54;20787;31
2023/08/17 07:47:37;;;;;;;4.35;2.70;;;24.20;99.90;;;;;;2601491;54;20163;31
2023/08/17 07:52:48;;;;;;;3.30;2.45;;;24.70;99.90;;;;;;2632398;54;20025;-91
2023/08/17 07:55:20;;;;;;;3.92;2.53;;;25.20;99.90;;;;;;2950995;46;20049;-90
2023/08/17 07:57:57;;;;;;;5.88;2.30;;;25.60;99.90;;;;;;2951039;46;20005;-89
2023/08/17 08:00:36;;;;;;;5.13;2.60;;;26.10;99.90;;;;;;2601080;54;20136;31
2023/08/17 08:03:20;;;;;;;4.90;2.70;;;26.50;99.90;;;;;;2602150;54;20038;31
2023/08/17 08:06:00;;;;;;;10.17;2.40;;;26.60;99.90;;;;;;2619790;46;20045;31
2023/08/17 08:08:38;;;;;;;3.83;2.40;;;26.70;99.90;;;;;;2600532;54;20447;31
2023/08/17 08:11:16;;;;;;;5.80;2.25;;;26.70;99.90;;;;;;2600624;54;20054;31
2023/08/17 08:13:54;;;;;;;4.28;2.50;;;27.00;99.90;;;;;;2600810;54;20913;31
2023/08/17 08:16:35;;;;;;;5.30;2.20;;;27.40;99.90;;;;;;2601339;54;20393;31
2023/08/17 08:19:16;;;;;;;4.80;2.45;;;27.80;99.90;;;;;;2601293;54;20042;31
2023/08/17 08:21:59;;;;;;;7.60;2.70;;;28.10;99.90;;;;;;2619728;46;20049;31
2023/08/17 08:24:36;;;;;;;5.60;2.75;;;28.30;99.90;;;;;;2600458;54;20046;31
2023/08/17 08:27:17;;;;;;;3.25;1.98;;;28.60;99.90;;;;;;2609727;47;20253;31
2023/08/17 08:29:54;;;;;;;3.60;2.15;;;28.90;99.90;;;;;;2604801;39;20287;31
2023/08/17 08:32:32;;;;;;;5.25;2.40;;;29.00;99.90;;;;;;2600061;54;21487;31
2023/08/17 08:35:11;;;;;;;4.70;2.53;;;28.90;99.90;;;;;;2613451;47;20019;31
2023/08/17 08:37:49;;;;;;;4.40;2.25;;;28.90;99.90;;;;;;2601565;54;20101;31
2023/08/17 08:40:28;;;;;;;6.85;2.20;;;29.00;99.90;;;;;;2601393;54;20050;31
2023/08/17 08:43:06;;;;;;;6.10;2.15;;;29.30;99.90;;;;;;2600574;54;20038;31
2023/08/17 08:45:44;;;;;;;3.77;2.70;;;29.60;99.90;;;;;;2601551;54;20907;31
2023/08/17 08:48:22;;;;;;;4.93;2.10;;;29.80;99.90;;;;;;2619734;47;20119;31
2023/08/17 08:51:06;;;;;;;6.95;2.38;;;30.00;99.90;;;;;;2618782;39;20507;31
2023/08/17 08:53:48;;;;;;;3.00;2.22;;;30.10;99.90;;;;;;2600539;54;20043;31
2023/08/17 08:56:24;;;;;;;3.25;2.40;;;30.00;99.90;;;;;;2626134;39;20286;31
2023/08/17 08:59:04;;;;;;;4.25;2.30;;;30.10;99.90;;;;;;2600481;54;20069;31
2023/08/17 09:01:45;;;;;;;7.25;2.25;;;30.00;99.90;;;;;;2601641;54;20914;31
2023/08/17 09:04:22;;;;;;;3.50;2.20;;;30.20;99.90;;;;;;2601205;54;20129;31
2023/08/17 09:07:02;;;;;;;5.32;2.10;;;30.50;99.90;;;;;;2602045;54;21049;31
2023/08/17 09:09:41;;;;;;;5.85;2.30;;;30.70;99.90;;;;;;2602091;54;20719;31
2023/08/17 09:12:21;;;;;;;2.67;2.10;;;30.70;99.90;;;;;;2602129;54;20043;31
2023/08/17 09:15:17;;;;;;;3.45;2.22;;;30.70;99.90;;;;;;2602115;54;20046;31
2023/08/17 09:17:53;;;;;;;4.43;2.40;;;30.60;99.90;;;;;;2620582;46;20391;31
2023/08/17 09:20:45;;;;;;;3.20;1.75;;;30.50;99.90;;;;;;2602061;54;20866;31
2023/08/17 09:23:24;;;;;;;5.53;2.10;;;30.40;99.90;;;;;;2602418;54;20038;31
2023/08/17 09:26:03;;;;;;;2.22;1.77;;;30.30;99.90;;;;;;2638443;31;22224;31
2023/08/17 09:28:44;;;;;;;3.08;1.98;;;30.30;99.90;;;;;;2620761;46;20429;31
2023/08/17 09:31:24;;;;;;;4.32;1.90;;;30.30;99.90;;;;;;2620298;46;20042;31
2023/08/17 09:34:11;;;;;;;5.80;2.08;;;30.40;99.90;;;;;;2620365;46;20395;31
2023/08/17 09:36:53;;;;;;;6.38;2.10;;;30.60;99.90;;;;;;2602034;54;20948;31
2023/08/17 09:39:32;;;;;;;5.70;2.10;;;30.60;99.90;;;;;;2602077;54;20988;31
2023/08/17 09:42:17;;;;;;;2.55;1.80;;;30.70;99.90;;;;;;2601865;54;20492;31
2023/08/17 09:44:55;;;;;;;4.97;1.90;;;30.90;99.90;;;;;;2602124;54;20061;31
2023/08/17 09:47:37;;;;;;;3.90;2.15;;;31.10;99.90;;;;;;2602047;54;20817;31
2023/08/17 09:50:15;;;;;;;2.67;1.97;;;31.00;99.90;;;;;;2620380;46;20488;31
2023/08/17 09:52:56;;;;;;;3.10;2.20;;;30.90;99.90;;;;;;2601154;54;20038;31
2023/08/17 09:55:35;;;;;;;3.78;2.03;;;30.80;99.90;;;;;;2601862;54;20286;31
2023/08/17 09:58:17;;;;;;;3.40;2.08;;;30.80;99.90;;;;;;2602296;54;20038;31
2023/08/17 10:00:56;;;;;;;7.13;2.30;;;31.00;99.90;;;;;;2607789;39;20273;31
2023/08/17 10:03:33;;;;;;;4.25;2.15;;;31.00;99.90;;;;;;2602185;54;20038;31
2023/08/17 10:06:13;;;;;;;2.75;2.00;;;31.00;99.90;;;;;;2602172;54;20840;31
2023/08/17 10:08:55;;;;;;;3.80;1.80;;;30.90;99.90;;;;;;2602232;54;20904;31
2023/08/17 10:11:35;;;;;;;2.65;1.98;;;31.00;99.90;;;;;;2621992;46;20081;31
2023/08/17 10:14:19;;;;;;;4.80;2.55;;;31.10;99.90;;;;;;2701209;39;20595;31
2023/08/17 10:17:00;;;;;;;3.13;2.80;;;31.10;99.90;;;;;;2603092;54;20049;31
2023/08/17 10:19:41;;;;;;;3.70;2.13;;;30.90;99.90;;;;;;2602725;54;21618;31
2023/08/17 10:22:21;;;;;;;4.82;2.53;;;31.00;99.90;;;;;;2603338;54;21695;31
2023/08/17 10:24:58;;;;;;;2.65;2.33;;;31.10;99.90;;;;;;2702220;39;20462;31
2023/08/17 10:27:37;;;;;;;4.40;2.33;;;31.20;99.90;;;;;;2603463;54;20029;31
2023/08/17 10:30:21;;;;;;;5.67;2.50;;;31.30;99.90;;;;;;2609118;46;20033;31
2023/08/17 10:32:58;;;;;;;2.93;2.07;;;31.30;99.90;;;;;;2603357;54;20823;31
2023/08/17 10:35:38;;;;;;;5.22;1.70;;;31.30;99.90;;;;;;2621887;46;20030;31
2023/08/17 10:38:15;;;;;;;3.80;2.58;;;31.20;99.90;;;;;;2602879;54;20085;31
2023/08/17 10:41:12;;;;;;;4.57;2.20;;;31.30;99.90;;;;;;2615471;46;20907;31
2023/08/17 10:44:11;;;;;;;3.90;1.90;;;31.40;99.90;;;;;;2603510;54;20026;31
2023/08/17 10:46:55;;;;;;;2.93;2.00;;;31.40;99.90;;;;;;2621701;46;20030;31
2023/08/17 10:49:38;;;;;;;2.17;1.90;;;31.40;99.90;;;;;;2603163;54;20912;31
2023/08/17 10:52:25;;;;;;;3.10;2.38;;;31.50;99.90;;;;;;2602617;54;20789;31
2023/08/17 10:55:08;;;;;;;4.10;2.20;;;31.50;99.90;;;;;;2603534;54;21690;31
2023/08/17 10:57:48;;;;;;;5.03;2.10;;;31.40;99.90;;;;;;2603525;54;20796;31
2023/08/17 11:00:31;;;;;;;4.40;2.85;;;31.40;99.90;;;;;;2603284;54;20072;31
2023/08/17 11:03:24;;;;;;;3.88;1.90;;;31.30;99.90;;;;;;2603504;54;20584;31
2023/08/17 11:06:24;;;;;;;3.70;2.00;;;31.30;99.90;;;;;;2603281;54;20889;31
2023/08/17 11:09:12;;;;;;;2.35;1.90;;;31.30;99.90;;;;;;2701770;39;20446;31
2023/08/17 11:11:48;;;;;;;3.35;2.20;;;31.30;99.90;;;;;;2602656;54;22352;31
2023/08/17 11:14:26;;;;;;;2.65;1.98;;;31.40;99.90;;;;;;2701755;39;21664;31
2023/08/17 11:17:04;;;;;;;4.35;2.30;;;31.40;99.90;;;;;;2603200;54;20854;31
2023/08/17 11:19:53;;;;;;;4.47;2.57;;;31.40;99.90;;;;;;2612656;46;20027;31
2023/08/17 11:22:33;;;;;;;3.97;2.30;;;31.40;99.90;;;;;;2603050;54;20942;31
2023/08/17 11:25:16;;;;;;;4.55;2.60;;;31.40;99.90;;;;;;2607841;46;20034;31
2023/08/17 11:27:54;;;;;;;4.63;2.80;;;31.40;99.90;;;;;;2621970;46;20842;31
2023/08/17 11:30:33;;;;;;;5.30;2.70;;;31.40;99.90;;;;;;2610479;47;20127;31
2023/08/17 11:33:11;;;;;;;5.70;2.88;;;31.30;99.90;;;;;;2603297;54;20096;31
2023/08/17 11:35:55;;;;;;;2.60;2.40;;;31.40;99.90;;;;;;2603305;54;20030;31
2023/08/17 11:38:41;;;;;;;3.25;2.58;;;31.40;99.90;;;;;;2621834;46;20026;31
2023/08/17 11:41:20;;;;;;;2.60;2.40;;;31.40;99.90;;;;;;2603300;54;20858;31
2023/08/17 11:43:58;;;;;;;3.20;2.90;;;31.40;99.90;;;;;;2603529;54;20806;31
2023/08/17 11:46:45;;;;;;;2.72;2.40;;;31.30;99.90;;;;;;2720474;39;21457;31
2023/08/17 11:49:28;;;;;;;3.03;2.50;;;31.20;99.90;;;;;;2603284;54;20022;31
2023/08/17 11:52:11;;;;;;;4.53;2.70;;;31.30;99.90;;;;;;2602651;54;20828;31
2023/08/17 11:54:52;;;;;;;4.20;2.50;;;31.30;99.90;;;;;;2701456;39;20527;31
2023/08/17 11:57:39;;;;;;;6.50;3.20;;;31.30;99.90;;;;;;2603087;54;20030;31
2023/08/17 12:00:44;;;;;;;2.90;2.25;;;31.30;99.90;;;;;;2603120;54;20034;31
2023/08/17 12:03:33;;;;;;;3.80;3.27;;;31.30;99.90;;;;;;2603270;54;20026;31
2023/08/17 12:06:14;;;;;;;4.30;2.95;;;31.40;99.90;;;;;;2602321;54;20041;31
2023/08/17 12:09:04;;;;;;;5.85;3.10;;;31.30;99.90;;;;;;2603515;54;20026;31
2023/08/17 12:11:46;;;;;;;3.08;2.60;;;31.20;99.90;;;;;;2602892;54;20104;31
2023/08/17 12:14:35;;;;;;;4.55;2.55;;;31.20;99.90;;;;;;2603249;54;20026;31
2023/08/17 12:17:26;;;;;;;6.55;2.80;;;31.20;99.90;;;;;;2620939;46;20026;31
2023/08/17 12:20:08;;;;;;;4.55;3.08;;;31.20;99.90;;;;;;2621374;46;20049;31
2023/08/17 12:22:56;;;;;;;4.20;2.80;;;31.20;99.90;;;;;;2603044;54;20935;31
2023/08/17 12:26:00;;;;;;;3.97;3.00;;;31.20;99.90;;;;;;2603036;54;21568;31
2023/08/17 12:29:05;;;;;;;5.65;3.10;;;31.00;99.90;;;;;;2602877;54;20888;31
2023/08/17 12:31:41;;;;;;;4.45;3.05;;;30.90;99.90;;;;;;2602947;54;20053;31
2023/08/17 12:34:27;;;;;;;3.83;3.42;;;30.90;99.90;;;;;;2605636;47;20038;31
2023/08/17 12:40:07;;;;;;;4.50;3.25;;;30.80;99.90;;;;;;2602953;54;20026;31
2023/08/17 12:43:12;;;;;;;3.75;3.28;;;30.70;99.90;;;;;;2603835;54;20022;31
2023/08/17 12:45:54;;;;;;;4.25;3.30;;;30.70;99.90;;;;;;2603648;54;21019;31
2023/08/17 12:48:36;;;;;;;3.47;3.17;;;30.70;99.90;;;;;;2603872;54;20075;31
2023/08/17 12:51:13;;;;;;;4.10;3.65;;;30.60;99.90;;;;;;2603948;54;21543;31
2023/08/17 12:53:53;;;;;;;3.45;3.15;;;30.70;99.90;;;;;;2603955;54;20072;31
2023/08/17 12:56:32;;;;;;;4.68;3.25;;;30.70;99.90;;;;;;2622415;46;20026;31
2023/08/17 13:02:08;;;;;;;4.13;3.10;;;30.60;99.90;;;;;;2603572;54;20477;31
2023/08/17 13:04:46;;;;;;;3.25;2.95;;;30.60;99.90;;;;;;2603798;54;20989;31
2023/08/17 13:07:27;;;;;;;6.80;3.55;;;30.60;99.90;;;;;;2603588;54;20814;31
2023/08/17 13:10:02;;;;;;;4.50;2.80;;;30.60;99.90;;;;;;2603687;54;20034;31
2023/08/17 13:12:47;;;;;;;4.07;3.28;;;30.60;99.90;;;;;;2603807;54;20297;31
2023/08/17 13:15:37;;;;;;;6.60;3.30;;;30.60;99.90;;;;;;2622180;46;20037;31
2023/08/17 13:18:16;;;;;;;6.32;3.70;;;30.60;99.90;;;;;;2603646;54;20034;31
2023/08/17 13:23:58;;;;;;;3.10;2.75;;;30.50;99.90;;;;;;2603789;54;20879;31
2023/08/17 13:26:36;;;;;;;3.20;2.90;;;30.40;99.90;;;;;;2621949;46;20026;31
2023/08/17 13:29:17;;;;;;;4.20;3.20;;;30.50;99.90;;;;;;2603610;54;20819;31
2023/08/17 13:32:05;;;;;;;3.35;2.80;;;30.50;99.90;;;;;;2621987;46;20906;31
2023/08/17 13:34:41;;;;;;;4.03;3.20;;;30.40;99.90;;;;;;2603379;54;20071;31
2023/08/17 13:37:18;;;;;;;5.63;3.13;;;30.50;99.90;;;;;;2602958;54;22388;31
2023/08/17 13:40:01;;;;;;;3.80;3.30;;;30.50;99.90;;;;;;2602936;54;20022;31
2023/08/17 13:42:40;;;;;;;4.63;3.05;;;30.50;99.90;;;;;;2613087;46;20243;31
2023/08/17 13:45:18;;;;;;;3.85;3.00;;;30.60;99.90;;;;;;2602833;54;20034;31
2023/08/17 13:48:05;;;;;;;4.45;2.95;;;30.50;99.90;;;;;;2602802;54;20932;31
2023/08/17 13:50:46;;;;;;;3.88;2.70;;;30.50;99.90;;;;;;2603833;54;20030;31
2023/08/17 13:53:42;;;;;;;3.30;2.92;;;30.50;99.90;;;;;;2603479;54;20585;31
2023/08/17 13:56:24;;;;;;;3.55;3.22;;;30.40;99.90;;;;;;2603861;54;21549;31
2023/08/17 13:59:07;;;;;;;3.42;3.13;;;30.40;99.90;;;;;;2603784;54;20027;31
2023/08/17 14:01:48;;;;;;;3.55;3.17;;;30.40;99.90;;;;;;2773445;31;21559;31
2023/08/17 14:04:43;;;;;;;4.15;3.30;;;30.40;99.90;;;;;;2603613;54;20027;31
2023/08/17 14:07:23;;;;;;;3.17;2.95;;;30.50;99.90;;;;;;2622175;46;20030;31
2023/08/17 14:10:05;;;;;;;3.45;3.15;;;30.50;99.90;;;;;;2613603;46;20897;31
2023/08/17 14:12:50;;;;;;;3.78;3.05;;;30.50;99.90;;;;;;2603228;54;20045;31
2023/08/17 14:15:28;;;;;;;5.40;3.70;;;30.50;99.90;;;;;;2701076;39;20583;31
2023/08/17 14:18:15;;;;;;;4.10;3.15;;;30.50;99.90;;;;;;2603713;54;21847;31
2023/08/17 14:21:15;;;;;;;6.15;3.35;;;30.60;99.90;;;;;;2621929;46;20812;31
2023/08/17 14:23:55;;;;;;;4.28;3.45;;;30.60;99.90;;;;;;2603341;54;20682;31